sensor_id;sensor_type;location;lat;lon;timestamp;pressure;altitude;pressure_sealevel;temperature
11424;BMP180;5768;51.476;7.210;2022-12-22T00:05:00;99195.00;;;13.40
11424;BMP180;5768;51.476;7.210;2022-12-22T00:10:21;99192.00;;;13.50
11424;BMP180;5768;51.476;7.210;2022-12-22T00:15:41;99175.00;;;13.50
11424;BMP180;5768;51.476;7.210;2022-12-22T00:21:01;99172.00;;;13.50
11424;BMP180;5768;51.476;7.210;2022-12-22T00:26:22;99160.00;;;13.50
11424;BMP180;5768;51.476;7.210;2022-12-22T00:31:42;99155.00;;;13.60
11424;BMP180;5768;51.476;7.210;2022-12-22T00:37:03;99149.00;;;13.70
11424;BMP180;5768;51.476;7.210;2022-12-22T00:42:24;99158.00;;;13.70
11424;BMP180;5768;51.476;7.210;2022-12-22T00:47:45;99147.00;;;13.80
11424;BMP180;5768;51.476;7.210;2022-12-22T00:53:05;99136.00;;;13.80
11424;BMP180;5768;51.476;7.210;2022-12-22T00:58:26;99140.00;;;13.80
11424;BMP180;5768;51.476;7.210;2022-12-22T01:03:46;99124.00;;;13.80
11424;BMP180;5768;51.476;7.210;2022-12-22T01:09:09;99126.00;;;13.80
11424;BMP180;5768;51.476;7.210;2022-12-22T01:14:30;99116.00;;;13.80
11424;BMP180;5768;51.476;7.210;2022-12-22T01:19:50;99097.00;;;13.90
11424;BMP180;5768;51.476;7.210;2022-12-22T01:25:12;99090.00;;;13.90
11424;BMP180;5768;51.476;7.210;2022-12-22T01:30:36;99075.00;;;13.90
11424;BMP180;5768;51.476;7.210;2022-12-22T01:35:56;99069.00;;;14.00
11424;BMP180;5768;51.476;7.210;2022-12-22T01:41:19;99062.00;;;13.90
11424;BMP180;5768;51.476;7.210;2022-12-22T01:46:43;99051.00;;;14.00
11424;BMP180;5768;51.476;7.210;2022-12-22T01:52:05;99052.00;;;14.00
11424;BMP180;5768;51.476;7.210;2022-12-22T01:57:25;99043.00;;;14.00
11424;BMP180;5768;51.476;7.210;2022-12-22T02:02:46;99039.00;;;14.00
11424;BMP180;5768;51.476;7.210;2022-12-22T02:08:16;99031.00;;;14.10
11424;BMP180;5768;51.476;7.210;2022-12-22T02:13:55;99023.00;;;14.10
11424;BMP180;5768;51.476;7.210;2022-12-22T02:19:40;99006.00;;;14.10
11424;BMP180;5768;51.476;7.210;2022-12-22T02:25:17;98989.00;;;14.10
11424;BMP180;5768;51.476;7.210;2022-12-22T02:30:43;98995.00;;;14.10
11424;BMP180;5768;51.476;7.210;2022-12-22T02:36:12;98987.00;;;14.10
11424;BMP180;5768;51.476;7.210;2022-12-22T02:41:44;98968.00;;;14.10
11424;BMP180;5768;51.476;7.210;2022-12-22T02:47:18;98954.00;;;14.10
11424;BMP180;5768;51.476;7.210;2022-12-22T02:52:43;98945.00;;;14.10
11424;BMP180;5768;51.476;7.210;2022-12-22T02:58:04;98935.00;;;14.10
11424;BMP180;5768;51.476;7.210;2022-12-22T03:03:25;98940.00;;;14.10
11424;BMP180;5768;51.476;7.210;2022-12-22T03:08:44;98930.00;;;14.10
11424;BMP180;5768;51.476;7.210;2022-12-22T03:14:04;98921.00;;;14.10
11424;BMP180;5768;51.476;7.210;2022-12-22T03:19:25;98912.00;;;14.10
11424;BMP180;5768;51.476;7.210;2022-12-22T03:24:45;98901.00;;;14.10
11424;BMP180;5768;51.476;7.210;2022-12-22T03:30:06;98899.00;;;14.20
11424;BMP180;5768;51.476;7.210;2022-12-22T03:35:10;98891.00;;;14.20
11424;BMP180;5768;51.476;7.210;2022-12-22T03:40:12;98881.00;;;14.20
11424;BMP180;5768;51.476;7.210;2022-12-22T03:45:15;98877.00;;;14.20
11424;BMP180;5768;51.476;7.210;2022-12-22T03:50:35;98871.00;;;14.20
11424;BMP180;5768;51.476;7.210;2022-12-22T03:55:37;98861.00;;;14.20
11424;BMP180;5768;51.476;7.210;2022-12-22T04:00:40;98857.00;;;14.20
11424;BMP180;5768;51.476;7.210;2022-12-22T04:05:44;98848.00;;;14.20
11424;BMP180;5768;51.476;7.210;2022-12-22T04:10:46;98843.00;;;14.30
11424;BMP180;5768;51.476;7.210;2022-12-22T04:16:06;98853.00;;;14.30
11424;BMP180;5768;51.476;7.210;2022-12-22T04:21:11;98841.00;;;14.30
11424;BMP180;5768;51.476;7.210;2022-12-22T04:26:14;98841.00;;;14.30
11424;BMP180;5768;51.476;7.210;2022-12-22T04:31:16;98829.00;;;14.30
11424;BMP180;5768;51.476;7.210;2022-12-22T04:36:20;98837.00;;;14.30
11424;BMP180;5768;51.476;7.210;2022-12-22T04:41:22;98830.00;;;14.30
11424;BMP180;5768;51.476;7.210;2022-12-22T04:46:24;98823.00;;;14.30
11424;BMP180;5768;51.476;7.210;2022-12-22T04:51:31;98823.00;;;14.30
11424;BMP180;5768;51.476;7.210;2022-12-22T04:56:33;98816.00;;;14.30
11424;BMP180;5768;51.476;7.210;2022-12-22T05:01:35;98815.00;;;14.30
11424;BMP180;5768;51.476;7.210;2022-12-22T05:06:39;98807.00;;;14.30
11424;BMP180;5768;51.476;7.210;2022-12-22T05:11:41;98800.00;;;14.30
11424;BMP180;5768;51.476;7.210;2022-12-22T05:16:43;98795.00;;;14.30
11424;BMP180;5768;51.476;7.210;2022-12-22T05:21:50;98801.00;;;14.40
11424;BMP180;5768;51.476;7.210;2022-12-22T05:26:52;98793.00;;;14.40
11424;BMP180;5768;51.476;7.210;2022-12-22T05:31:54;98786.00;;;14.30
11424;BMP180;5768;51.476;7.210;2022-12-22T05:37:04;98792.00;;;14.40
11424;BMP180;5768;51.476;7.210;2022-12-22T05:42:06;98787.00;;;14.40
11424;BMP180;5768;51.476;7.210;2022-12-22T05:47:08;98787.00;;;14.50
11424;BMP180;5768;51.476;7.210;2022-12-22T05:52:12;98779.00;;;14.40
11424;BMP180;5768;51.476;7.210;2022-12-22T05:57:15;98784.00;;;14.40
11424;BMP180;5768;51.476;7.210;2022-12-22T06:02:17;98784.00;;;14.50
11424;BMP180;5768;51.476;7.210;2022-12-22T06:07:20;98781.00;;;14.40
11424;BMP180;5768;51.476;7.210;2022-12-22T06:12:23;98781.00;;;14.40
11424;BMP180;5768;51.476;7.210;2022-12-22T06:17:25;98792.00;;;14.40
11424;BMP180;5768;51.476;7.210;2022-12-22T06:22:29;98788.00;;;14.50
11424;BMP180;5768;51.476;7.210;2022-12-22T06:27:31;98792.00;;;14.50
11424;BMP180;5768;51.476;7.210;2022-12-22T06:32:36;98796.00;;;14.50
11424;BMP180;5768;51.476;7.210;2022-12-22T06:37:40;98809.00;;;14.30
11424;BMP180;5768;51.476;7.210;2022-12-22T06:42:43;98807.00;;;14.20
11424;BMP180;5768;51.476;7.210;2022-12-22T06:48:04;98813.00;;;14.10
11424;BMP180;5768;51.476;7.210;2022-12-22T06:53:09;98821.00;;;14.10
11424;BMP180;5768;51.476;7.210;2022-12-22T06:58:11;98818.00;;;14.10
11424;BMP180;5768;51.476;7.210;2022-12-22T07:03:13;98831.00;;;14.10
11424;BMP180;5768;51.476;7.210;2022-12-22T07:08:17;98841.00;;;14.20
11424;BMP180;5768;51.476;7.210;2022-12-22T07:13:19;98845.00;;;14.20
11424;BMP180;5768;51.476;7.210;2022-12-22T07:18:28;98841.00;;;14.20
11424;BMP180;5768;51.476;7.210;2022-12-22T07:23:34;98866.00;;;14.20
11424;BMP180;5768;51.476;7.210;2022-12-22T07:28:39;98880.00;;;14.20
11424;BMP180;5768;51.476;7.210;2022-12-22T07:33:41;98883.00;;;14.10
11424;BMP180;5768;51.476;7.210;2022-12-22T07:38:50;98894.00;;;14.10
11424;BMP180;5768;51.476;7.210;2022-12-22T07:43:57;98898.00;;;13.90
11424;BMP180;5768;51.476;7.210;2022-12-22T07:49:04;98911.00;;;13.70
11424;BMP180;5768;51.476;7.210;2022-12-22T07:54:27;98918.00;;;13.60
11424;BMP180;5768;51.476;7.210;2022-12-22T07:59:30;98933.00;;;13.60
11424;BMP180;5768;51.476;7.210;2022-12-22T08:04:32;98937.00;;;13.50
11424;BMP180;5768;51.476;7.210;2022-12-22T08:09:36;98945.00;;;13.40
11424;BMP180;5768;51.476;7.210;2022-12-22T08:14:41;98953.00;;;13.40
11424;BMP180;5768;51.476;7.210;2022-12-22T08:19:46;98958.00;;;13.40
11424;BMP180;5768;51.476;7.210;2022-12-22T08:24:52;98960.00;;;13.40
11424;BMP180;5768;51.476;7.210;2022-12-22T08:30:01;98973.00;;;13.40
11424;BMP180;5768;51.476;7.210;2022-12-22T08:35:05;98980.00;;;13.40
11424;BMP180;5768;51.476;7.210;2022-12-22T08:40:15;99009.00;;;13.40
11424;BMP180;5768;51.476;7.210;2022-12-22T08:45:19;99013.00;;;13.40
11424;BMP180;5768;51.476;7.210;2022-12-22T08:50:22;99020.00;;;13.40
11424;BMP180;5768;51.476;7.210;2022-12-22T08:55:26;99031.00;;;13.50
11424;BMP180;5768;51.476;7.210;2022-12-22T09:00:28;99065.00;;;13.40
11424;BMP180;5768;51.476;7.210;2022-12-22T09:05:32;99066.00;;;13.30
11424;BMP180;5768;51.476;7.210;2022-12-22T09:10:42;99069.00;;;13.30
11424;BMP180;5768;51.476;7.210;2022-12-22T09:15:45;99075.00;;;13.30
11424;BMP180;5768;51.476;7.210;2022-12-22T09:20:54;99068.00;;;13.30
11424;BMP180;5768;51.476;7.210;2022-12-22T09:26:05;99073.00;;;13.40
11424;BMP180;5768;51.476;7.210;2022-12-22T09:31:11;99092.00;;;13.60
11424;BMP180;5768;51.476;7.210;2022-12-22T09:36:23;99091.00;;;13.70
11424;BMP180;5768;51.476;7.210;2022-12-22T09:41:35;99105.00;;;13.80
11424;BMP180;5768;51.476;7.210;2022-12-22T09:46:39;99100.00;;;14.00
11424;BMP180;5768;51.476;7.210;2022-12-22T09:51:48;99118.00;;;14.10
11424;BMP180;5768;51.476;7.210;2022-12-22T09:56:53;99135.00;;;14.30
11424;BMP180;5768;51.476;7.210;2022-12-22T10:02:18;99149.00;;;14.40
11424;BMP180;5768;51.476;7.210;2022-12-22T10:07:30;99153.00;;;14.10
11424;BMP180;5768;51.476;7.210;2022-12-22T10:12:38;99165.00;;;14.00
11424;BMP180;5768;51.476;7.210;2022-12-22T10:17:40;99157.00;;;13.80
11424;BMP180;5768;51.476;7.210;2022-12-22T10:22:47;99168.00;;;13.70
11424;BMP180;5768;51.476;7.210;2022-12-22T10:27:54;99174.00;;;13.50
11424;BMP180;5768;51.476;7.210;2022-12-22T10:33:06;99195.00;;;13.40
11424;BMP180;5768;51.476;7.210;2022-12-22T10:38:20;99192.00;;;13.20
11424;BMP180;5768;51.476;7.210;2022-12-22T10:43:28;99191.00;;;13.10
11424;BMP180;5768;51.476;7.210;2022-12-22T10:48:34;99209.00;;;13.00
11424;BMP180;5768;51.476;7.210;2022-12-22T10:53:52;99195.00;;;13.00
11424;BMP180;5768;51.476;7.210;2022-12-22T10:59:17;99213.00;;;13.00
11424;BMP180;5768;51.476;7.210;2022-12-22T11:04:23;99219.00;;;13.00
11424;BMP180;5768;51.476;7.210;2022-12-22T11:09:26;99229.00;;;13.00
11424;BMP180;5768;51.476;7.210;2022-12-22T11:14:42;99236.00;;;13.00
11424;BMP180;5768;51.476;7.210;2022-12-22T11:20:08;99257.00;;;13.00
11424;BMP180;5768;51.476;7.210;2022-12-22T11:25:30;99260.00;;;13.10
11424;BMP180;5768;51.476;7.210;2022-12-22T11:30:47;99267.00;;;13.50
11424;BMP180;5768;51.476;7.210;2022-12-22T11:35:57;99289.00;;;13.70
11424;BMP180;5768;51.476;7.210;2022-12-22T11:41:10;99279.00;;;13.70
11424;BMP180;5768;51.476;7.210;2022-12-22T11:46:25;99284.00;;;14.00
11424;BMP180;5768;51.476;7.210;2022-12-22T11:51:50;99306.00;;;14.60
11424;BMP180;5768;51.476;7.210;2022-12-22T11:57:06;99319.00;;;14.80
11424;BMP180;5768;51.476;7.210;2022-12-22T12:08:21;99284.00;;;14.20
11424;BMP180;5768;51.476;7.210;2022-12-22T12:13:34;99298.00;;;13.90
11424;BMP180;5768;51.476;7.210;2022-12-22T12:19:14;99305.00;;;13.70
11424;BMP180;5768;51.476;7.210;2022-12-22T12:24:42;99316.00;;;13.90
11424;BMP180;5768;51.476;7.210;2022-12-22T12:30:02;99328.00;;;14.00
11424;BMP180;5768;51.476;7.210;2022-12-22T12:35:44;99328.00;;;14.00
11424;BMP180;5768;51.476;7.210;2022-12-22T12:40:54;99335.00;;;14.30
11424;BMP180;5768;51.476;7.210;2022-12-22T12:45:56;99342.00;;;14.40
11424;BMP180;5768;51.476;7.210;2022-12-22T12:51:00;99325.00;;;14.30
11424;BMP180;5768;51.476;7.210;2022-12-22T12:56:07;99334.00;;;14.70
11424;BMP180;5768;51.476;7.210;2022-12-22T13:01:12;99345.00;;;14.50
11424;BMP180;5768;51.476;7.210;2022-12-22T13:06:52;99335.00;;;14.40
11424;BMP180;5768;51.476;7.210;2022-12-22T13:11:54;99326.00;;;14.50
11424;BMP180;5768;51.476;7.210;2022-12-22T13:17:38;99320.00;;;14.50
11424;BMP180;5768;51.476;7.210;2022-12-22T13:22:45;99325.00;;;14.30
11424;BMP180;5768;51.476;7.210;2022-12-22T13:27:53;99327.00;;;14.20
11424;BMP180;5768;51.476;7.210;2022-12-22T13:32:59;99323.00;;;14.20
11424;BMP180;5768;51.476;7.210;2022-12-22T13:38:04;99320.00;;;14.30
11424;BMP180;5768;51.476;7.210;2022-12-22T13:43:11;99332.00;;;14.20
11424;BMP180;5768;51.476;7.210;2022-12-22T13:48:18;99327.00;;;14.20
11424;BMP180;5768;51.476;7.210;2022-12-22T13:53:33;99341.00;;;14.30
11424;BMP180;5768;51.476;7.210;2022-12-22T13:58:39;99344.00;;;14.30
11424;BMP180;5768;51.476;7.210;2022-12-22T14:03:48;99363.00;;;14.20
11424;BMP180;5768;51.476;7.210;2022-12-22T14:08:52;99344.00;;;14.10
11424;BMP180;5768;51.476;7.210;2022-12-22T14:13:54;99353.00;;;14.10
11424;BMP180;5768;51.476;7.210;2022-12-22T14:18:57;99357.00;;;13.80
11424;BMP180;5768;51.476;7.210;2022-12-22T14:24:00;99358.00;;;13.80
11424;BMP180;5768;51.476;7.210;2022-12-22T14:29:07;99355.00;;;13.60
11424;BMP180;5768;51.476;7.210;2022-12-22T14:34:28;99373.00;;;13.50
11424;BMP180;5768;51.476;7.210;2022-12-22T14:39:32;99354.00;;;13.70
11424;BMP180;5768;51.476;7.210;2022-12-22T14:44:43;99362.00;;;13.60
11424;BMP180;5768;51.476;7.210;2022-12-22T14:49:48;99358.00;;;13.60
11424;BMP180;5768;51.476;7.210;2022-12-22T14:54:54;99356.00;;;13.60
11424;BMP180;5768;51.476;7.210;2022-12-22T15:00:00;99354.00;;;13.60
11424;BMP180;5768;51.476;7.210;2022-12-22T15:05:09;99345.00;;;13.70
11424;BMP180;5768;51.476;7.210;2022-12-22T15:10:19;99339.00;;;13.70
11424;BMP180;5768;51.476;7.210;2022-12-22T15:15:21;99327.00;;;13.70
11424;BMP180;5768;51.476;7.210;2022-12-22T15:20:27;99317.00;;;13.50
11424;BMP180;5768;51.476;7.210;2022-12-22T15:25:31;99310.00;;;13.40
11424;BMP180;5768;51.476;7.210;2022-12-22T15:30:34;99307.00;;;13.30
11424;BMP180;5768;51.476;7.210;2022-12-22T15:35:36;99295.00;;;13.20
11424;BMP180;5768;51.476;7.210;2022-12-22T15:40:40;99295.00;;;13.30
11424;BMP180;5768;51.476;7.210;2022-12-22T15:45:44;99286.00;;;13.30
11424;BMP180;5768;51.476;7.210;2022-12-22T15:50:46;99289.00;;;13.30
11424;BMP180;5768;51.476;7.210;2022-12-22T15:55:53;99279.00;;;13.30
11424;BMP180;5768;51.476;7.210;2022-12-22T16:00:58;99279.00;;;13.30
11424;BMP180;5768;51.476;7.210;2022-12-22T16:06:00;99256.00;;;13.30
11424;BMP180;5768;51.476;7.210;2022-12-22T16:11:06;99263.00;;;13.30
11424;BMP180;5768;51.476;7.210;2022-12-22T16:16:09;99258.00;;;13.40
11424;BMP180;5768;51.476;7.210;2022-12-22T16:21:15;99263.00;;;13.50
11424;BMP180;5768;51.476;7.210;2022-12-22T16:26:27;99252.00;;;13.60
11424;BMP180;5768;51.476;7.210;2022-12-22T16:31:30;99231.00;;;13.60
11424;BMP180;5768;51.476;7.210;2022-12-22T16:36:32;99226.00;;;13.70
11424;BMP180;5768;51.476;7.210;2022-12-22T16:41:35;99217.00;;;13.70
11424;BMP180;5768;51.476;7.210;2022-12-22T16:46:38;99218.00;;;13.60
11424;BMP180;5768;51.476;7.210;2022-12-22T16:51:48;99209.00;;;13.70
11424;BMP180;5768;51.476;7.210;2022-12-22T16:56:53;99199.00;;;13.60
11424;BMP180;5768;51.476;7.210;2022-12-22T17:01:57;99191.00;;;13.60
11424;BMP180;5768;51.476;7.210;2022-12-22T17:07:00;99181.00;;;13.50
11424;BMP180;5768;51.476;7.210;2022-12-22T17:12:05;99165.00;;;13.50
11424;BMP180;5768;51.476;7.210;2022-12-22T17:17:14;99176.00;;;13.50
11424;BMP180;5768;51.476;7.210;2022-12-22T17:22:21;99172.00;;;13.50
11424;BMP180;5768;51.476;7.210;2022-12-22T17:27:30;99149.00;;;13.50
11424;BMP180;5768;51.476;7.210;2022-12-22T17:32:33;99161.00;;;13.50
11424;BMP180;5768;51.476;7.210;2022-12-22T17:37:35;99156.00;;;13.50
11424;BMP180;5768;51.476;7.210;2022-12-22T17:42:39;99146.00;;;13.40
11424;BMP180;5768;51.476;7.210;2022-12-22T17:47:42;99134.00;;;13.40
11424;BMP180;5768;51.476;7.210;2022-12-22T17:52:45;99139.00;;;13.20
11424;BMP180;5768;51.476;7.210;2022-12-22T17:57:50;99125.00;;;13.10
11424;BMP180;5768;51.476;7.210;2022-12-22T18:02:52;99113.00;;;13.10
11424;BMP180;5768;51.476;7.210;2022-12-22T18:07:56;99100.00;;;13.10
11424;BMP180;5768;51.476;7.210;2022-12-22T18:13:02;99106.00;;;13.10
11424;BMP180;5768;51.476;7.210;2022-12-22T18:18:11;99085.00;;;13.20
11424;BMP180;5768;51.476;7.210;2022-12-22T18:23:16;99084.00;;;13.30
11424;BMP180;5768;51.476;7.210;2022-12-22T18:28:22;99075.00;;;13.40
11424;BMP180;5768;51.476;7.210;2022-12-22T18:33:25;99083.00;;;13.40
11424;BMP180;5768;51.476;7.210;2022-12-22T18:38:31;99072.00;;;13.50
11424;BMP180;5768;51.476;7.210;2022-12-22T18:43:37;99058.00;;;13.50
11424;BMP180;5768;51.476;7.210;2022-12-22T18:48:39;99052.00;;;13.40
11424;BMP180;5768;51.476;7.210;2022-12-22T18:53:42;99051.00;;;13.50
11424;BMP180;5768;51.476;7.210;2022-12-22T18:58:51;99033.00;;;13.40
11424;BMP180;5768;51.476;7.210;2022-12-22T19:03:57;99025.00;;;13.50
11424;BMP180;5768;51.476;7.210;2022-12-22T19:09:01;99030.00;;;13.50
11424;BMP180;5768;51.476;7.210;2022-12-22T19:14:13;99018.00;;;13.50
11424;BMP180;5768;51.476;7.210;2022-12-22T19:19:19;99018.00;;;13.60
11424;BMP180;5768;51.476;7.210;2022-12-22T19:24:30;99019.00;;;13.60
11424;BMP180;5768;51.476;7.210;2022-12-22T19:29:35;99003.00;;;13.60
11424;BMP180;5768;51.476;7.210;2022-12-22T19:34:38;99003.00;;;13.50
11424;BMP180;5768;51.476;7.210;2022-12-22T19:39:40;99010.00;;;13.50
11424;BMP180;5768;51.476;7.210;2022-12-22T19:44:44;98993.00;;;13.50
11424;BMP180;5768;51.476;7.210;2022-12-22T19:49:47;98997.00;;;13.50
11424;BMP180;5768;51.476;7.210;2022-12-22T19:54:49;99002.00;;;13.60
11424;BMP180;5768;51.476;7.210;2022-12-22T19:59:53;98998.00;;;13.50
11424;BMP180;5768;51.476;7.210;2022-12-22T20:04:57;98991.00;;;13.50
11424;BMP180;5768;51.476;7.210;2022-12-22T20:10:00;98985.00;;;13.60
11424;BMP180;5768;51.476;7.210;2022-12-22T20:15:15;98995.00;;;13.50
11424;BMP180;5768;51.476;7.210;2022-12-22T20:20:21;98988.00;;;13.50
11424;BMP180;5768;51.476;7.210;2022-12-22T20:25:27;99002.00;;;13.50
11424;BMP180;5768;51.476;7.210;2022-12-22T20:30:33;98988.00;;;13.40
11424;BMP180;5768;51.476;7.210;2022-12-22T20:35:36;99011.00;;;13.30
11424;BMP180;5768;51.476;7.210;2022-12-22T20:40:39;98992.00;;;13.10
11424;BMP180;5768;51.476;7.210;2022-12-22T20:45:46;98983.00;;;13.10
11424;BMP180;5768;51.476;7.210;2022-12-22T20:50:49;98969.00;;;13.10
11424;BMP180;5768;51.476;7.210;2022-12-22T20:55:54;98982.00;;;13.10
11424;BMP180;5768;51.476;7.210;2022-12-22T21:01:00;98983.00;;;13.10
11424;BMP180;5768;51.476;7.210;2022-12-22T21:06:22;98999.00;;;13.20
11424;BMP180;5768;51.476;7.210;2022-12-22T21:11:25;98989.00;;;13.20
11424;BMP180;5768;51.476;7.210;2022-12-22T21:16:30;98969.00;;;13.20
11424;BMP180;5768;51.476;7.210;2022-12-22T21:21:38;98988.00;;;13.20
11424;BMP180;5768;51.476;7.210;2022-12-22T21:26:44;98981.00;;;13.10
11424;BMP180;5768;51.476;7.210;2022-12-22T21:31:50;98999.00;;;13.00
11424;BMP180;5768;51.476;7.210;2022-12-22T21:36:59;98995.00;;;12.70
11424;BMP180;5768;51.476;7.210;2022-12-22T21:42:02;98992.00;;;12.60
11424;BMP180;5768;51.476;7.210;2022-12-22T21:47:09;99007.00;;;12.60
11424;BMP180;5768;51.476;7.210;2022-12-22T21:52:12;98994.00;;;12.50
11424;BMP180;5768;51.476;7.210;2022-12-22T21:57:15;98967.00;;;12.60
11424;BMP180;5768;51.476;7.210;2022-12-22T22:02:18;98978.00;;;12.50
11424;BMP180;5768;51.476;7.210;2022-12-22T22:07:20;98982.00;;;12.60
11424;BMP180;5768;51.476;7.210;2022-12-22T22:12:23;98992.00;;;12.60
11424;BMP180;5768;51.476;7.210;2022-12-22T22:17:38;98980.00;;;12.60
11424;BMP180;5768;51.476;7.210;2022-12-22T22:22:41;98984.00;;;12.60
11424;BMP180;5768;51.476;7.210;2022-12-22T22:27:47;98980.00;;;12.70
11424;BMP180;5768;51.476;7.210;2022-12-22T22:32:52;98971.00;;;12.70
11424;BMP180;5768;51.476;7.210;2022-12-22T22:37:54;98972.00;;;12.80
11424;BMP180;5768;51.476;7.210;2022-12-22T22:42:56;98970.00;;;12.70
11424;BMP180;5768;51.476;7.210;2022-12-22T22:48:00;98969.00;;;12.70
11424;BMP180;5768;51.476;7.210;2022-12-22T22:53:02;98976.00;;;12.70
11424;BMP180;5768;51.476;7.210;2022-12-22T22:58:05;98968.00;;;12.70
11424;BMP180;5768;51.476;7.210;2022-12-22T23:03:13;98978.00;;;12.80
11424;BMP180;5768;51.476;7.210;2022-12-22T23:08:15;98975.00;;;12.70
11424;BMP180;5768;51.476;7.210;2022-12-22T23:13:17;98979.00;;;12.70
11424;BMP180;5768;51.476;7.210;2022-12-22T23:18:22;98972.00;;;12.70
11424;BMP180;5768;51.476;7.210;2022-12-22T23:23:26;98982.00;;;12.80
11424;BMP180;5768;51.476;7.210;2022-12-22T23:28:28;98992.00;;;12.90
11424;BMP180;5768;51.476;7.210;2022-12-22T23:33:32;98988.00;;;13.00
11424;BMP180;5768;51.476;7.210;2022-12-22T23:38:36;98997.00;;;13.20
11424;BMP180;5768;51.476;7.210;2022-12-22T23:43:39;98987.00;;;13.30
11424;BMP180;5768;51.476;7.210;2022-12-22T23:48:50;98992.00;;;13.40
11424;BMP180;5768;51.476;7.210;2022-12-22T23:53:54;98985.00;;;13.40
11424;BMP180;5768;51.476;7.210;2022-12-22T23:58:57;98982.00;;;13.40
